createdAt,value
2023-11-29T00:00:29.120Z,2.97
2023-11-29T00:02:56.337Z,3.93
2023-11-29T00:05:27.217Z,3.90
2023-11-29T00:08:00.276Z,3.80
2023-11-29T00:10:27.320Z,4.10
2023-11-29T00:12:54.507Z,4.00
2023-11-29T00:15:21.582Z,3.40
2023-11-29T00:17:49.013Z,3.80
2023-11-29T00:20:16.251Z,3.40
2023-11-29T00:22:43.336Z,3.17
2023-11-29T00:25:10.439Z,2.90
2023-11-29T00:27:37.480Z,3.30
2023-11-29T00:30:04.631Z,3.17
2023-11-29T00:32:31.746Z,3.60
2023-11-29T00:34:58.906Z,3.53
2023-11-29T00:37:25.977Z,3.37
2023-11-29T00:39:53.072Z,3.50
2023-11-29T00:42:20.134Z,3.60
2023-11-29T00:44:47.312Z,3.40
2023-11-29T00:47:14.609Z,3.70
2023-11-29T00:49:42.605Z,4.00
2023-11-29T00:52:09.664Z,3.80
2023-11-29T00:54:36.832Z,4.07
2023-11-29T00:57:03.981Z,4.20
2023-11-29T00:59:31.081Z,3.70
2023-11-29T01:01:58.220Z,3.90
2023-11-29T01:04:25.375Z,3.80
2023-11-29T01:06:52.455Z,3.53
2023-11-29T01:09:20.777Z,3.47
2023-11-29T01:11:47.965Z,4.00
2023-11-29T01:14:15.085Z,3.77
2023-11-29T01:16:42.186Z,4.20
2023-11-29T01:19:09.359Z,4.33
2023-11-29T01:21:39.391Z,4.43
2023-11-29T01:24:06.984Z,4.93
2023-11-29T01:26:34.531Z,5.00
2023-11-29T01:29:02.076Z,5.00
2023-11-29T01:31:29.140Z,4.57
2023-11-29T01:33:56.495Z,4.90
2023-11-29T01:36:23.605Z,5.00
2023-11-29T01:38:51.820Z,4.67
2023-11-29T01:41:19.195Z,5.00
2023-11-29T01:43:46.761Z,4.73
2023-11-29T01:46:14.438Z,4.30
2023-11-29T01:48:41.603Z,4.57
2023-11-29T01:51:09.382Z,4.10
2023-11-29T01:53:39.375Z,4.20
2023-11-29T01:56:07.336Z,4.07
2023-11-29T01:58:34.493Z,3.77
2023-11-29T02:01:01.564Z,3.80
2023-11-29T02:03:29.373Z,4.07
2023-11-29T02:05:56.648Z,4.10
2023-11-29T02:08:23.862Z,3.83
2023-11-29T02:10:51.815Z,3.60
2023-11-29T02:13:19.085Z,3.83
2023-11-29T02:15:46.324Z,4.10
2023-11-29T02:18:14.544Z,3.97
2023-11-29T02:20:41.890Z,4.13
2023-11-29T02:23:09.144Z,4.23
2023-11-29T02:25:36.266Z,3.90
2023-11-29T02:28:03.604Z,4.03
2023-11-29T02:30:30.852Z,4.20
2023-11-29T02:32:57.989Z,3.97
2023-11-29T02:35:25.149Z,4.00
2023-11-29T02:37:52.210Z,4.10
2023-11-29T02:40:19.442Z,4.17
2023-11-29T02:42:46.516Z,3.97
2023-11-29T02:45:13.681Z,3.97
2023-11-29T02:47:40.916Z,3.90
2023-11-29T02:50:08.332Z,3.30
2023-11-29T02:52:35.459Z,4.00
2023-11-29T02:55:02.569Z,3.47
2023-11-29T02:57:29.681Z,3.70
2023-11-29T02:59:56.836Z,3.23
2023-11-29T03:02:24.001Z,3.87
2023-11-29T03:04:51.268Z,3.60
2023-11-29T03:07:18.335Z,4.10
2023-11-29T03:09:45.437Z,4.30
2023-11-29T03:12:12.769Z,4.13
2023-11-29T03:14:39.930Z,4.03
2023-11-29T03:17:07.254Z,4.20
2023-11-29T03:19:34.422Z,3.60
2023-11-29T03:22:01.487Z,3.70
2023-11-29T03:24:28.622Z,3.47
2023-11-29T03:26:55.771Z,3.80
2023-11-29T03:29:22.845Z,4.10
2023-11-29T03:31:49.964Z,3.93
2023-11-29T03:34:17.211Z,3.83
2023-11-29T03:36:44.395Z,3.90
2023-11-29T03:39:11.560Z,3.90
2023-11-29T03:41:38.706Z,3.40
2023-11-29T03:44:05.845Z,4.00
2023-11-29T03:46:33.055Z,3.70
2023-11-29T03:49:00.175Z,3.60
2023-11-29T03:51:31.983Z,3.40
2023-11-29T03:54:04.882Z,4.00
2023-11-29T03:56:31.989Z,3.80
2023-11-29T03:58:59.162Z,3.93
2023-11-29T04:01:26.322Z,4.00
2023-11-29T04:03:53.444Z,3.33
2023-11-29T04:06:26.775Z,3.70
2023-11-29T04:08:54.813Z,4.47
2023-11-29T04:11:22.108Z,3.90
2023-11-29T04:13:49.315Z,4.43
2023-11-29T04:16:22.638Z,4.37
2023-11-29T04:18:50.302Z,4.33
2023-11-29T04:21:21.634Z,4.50
2023-11-29T04:23:48.756Z,3.67
2023-11-29T04:26:23.993Z,4.00
2023-11-29T04:28:51.093Z,3.57
2023-11-29T04:31:18.243Z,3.50
2023-11-29T04:33:45.337Z,3.33
2023-11-29T04:36:12.725Z,3.67
2023-11-29T04:38:39.904Z,3.83
2023-11-29T04:41:07.046Z,3.83
2023-11-29T04:43:34.177Z,3.80
2023-11-29T04:46:01.246Z,3.53
2023-11-29T04:48:28.422Z,3.60
2023-11-29T04:50:55.593Z,3.40
2023-11-29T04:53:22.719Z,3.90
2023-11-29T04:55:49.911Z,3.40
2023-11-29T04:58:16.971Z,3.00
2023-11-29T05:00:44.080Z,3.70
2023-11-29T05:03:11.190Z,3.47
2023-11-29T05:05:38.717Z,3.30
2023-11-29T05:08:06.639Z,2.97
2023-11-29T05:10:33.710Z,3.03
2023-11-29T05:13:00.752Z,3.00
2023-11-29T05:15:32.354Z,2.90
2023-11-29T05:18:01.554Z,2.80
2023-11-29T05:20:28.826Z,2.57
2023-11-29T05:22:55.891Z,2.50
2023-11-29T05:25:23.022Z,2.37
2023-11-29T05:27:50.606Z,3.20
2023-11-29T05:30:17.869Z,2.90
2023-11-29T05:32:45.489Z,2.50
2023-11-29T05:35:13.117Z,2.50
2023-11-29T05:37:40.224Z,2.67
2023-11-29T05:40:09.441Z,2.57
2023-11-29T05:42:37.057Z,2.33
2023-11-29T05:45:04.992Z,2.33
2023-11-29T05:47:32.400Z,2.30
2023-11-29T05:50:01.432Z,2.30
2023-11-29T05:52:28.626Z,2.50
2023-11-29T05:54:57.350Z,2.10
2023-11-29T05:57:24.568Z,2.00
2023-11-29T05:59:51.777Z,2.20
2023-11-29T06:02:19.023Z,2.50
2023-11-29T06:04:46.256Z,2.30
2023-11-29T06:07:13.373Z,2.07
2023-11-29T06:09:40.542Z,2.53
2023-11-29T06:12:08.372Z,2.27
2023-11-29T06:14:35.548Z,1.90
2023-11-29T06:17:02.915Z,2.23
2023-11-29T06:19:29.976Z,2.03
2023-11-29T06:21:57.061Z,1.93
2023-11-29T06:24:24.240Z,2.13
2023-11-29T06:26:51.520Z,2.10
2023-11-29T06:29:18.702Z,2.50
2023-11-29T06:31:46.033Z,2.37
2023-11-29T06:34:13.118Z,1.90
2023-11-29T06:36:40.760Z,2.07
2023-11-29T06:39:10.823Z,2.10
2023-11-29T06:41:39.600Z,2.10
2023-11-29T06:44:07.418Z,1.90
2023-11-29T06:46:34.524Z,1.80
2023-11-29T06:49:02.669Z,1.70
2023-11-29T06:51:29.801Z,1.43
2023-11-29T06:53:56.936Z,1.77
2023-11-29T06:56:24.068Z,1.87
2023-11-29T06:58:52.622Z,1.70
2023-11-29T07:01:19.714Z,1.80
2023-11-29T07:03:46.795Z,1.97
2023-11-29T07:06:23.503Z,2.07
2023-11-29T07:08:50.986Z,2.07
2023-11-29T07:11:18.158Z,2.10
2023-11-29T07:13:45.413Z,2.00
2023-11-29T07:16:13.014Z,1.90
2023-11-29T07:18:40.160Z,2.00
2023-11-29T07:21:07.544Z,1.77
2023-11-29T07:23:35.352Z,2.03
2023-11-29T07:26:02.464Z,1.87
2023-11-29T07:28:29.559Z,2.03
2023-11-29T07:30:57.430Z,2.23
2023-11-29T07:33:24.757Z,1.90
2023-11-29T07:35:51.906Z,2.17
2023-11-29T07:38:19.053Z,1.80
2023-11-29T07:40:46.230Z,2.20
2023-11-29T07:43:14.674Z,1.90
2023-11-29T07:45:43.061Z,1.70
2023-11-29T07:48:10.264Z,1.50
2023-11-29T07:50:37.429Z,1.73
2023-11-29T07:53:04.510Z,1.67
2023-11-29T07:55:31.709Z,1.37
2023-11-29T07:57:58.782Z,1.43
2023-11-29T08:00:25.876Z,1.10
2023-11-29T08:02:52.976Z,1.23
2023-11-29T08:05:26.060Z,1.27
2023-11-29T08:07:53.279Z,2.60
2023-11-29T08:10:20.345Z,1.33
2023-11-29T08:12:47.451Z,1.60
2023-11-29T08:15:14.536Z,1.73
2023-11-29T08:17:42.483Z,2.10
2023-11-29T08:20:10.529Z,1.73
2023-11-29T08:22:37.638Z,1.90
2023-11-29T08:25:04.902Z,1.93
2023-11-29T08:27:31.994Z,2.30
2023-11-29T08:29:59.070Z,2.00
2023-11-29T08:32:26.483Z,2.03
2023-11-29T08:34:53.560Z,2.30
2023-11-29T08:37:20.634Z,2.10
2023-11-29T08:39:47.688Z,2.10
2023-11-29T08:42:14.851Z,2.30
2023-11-29T08:44:43.215Z,2.83
2023-11-29T08:47:10.425Z,2.77
2023-11-29T08:49:37.597Z,2.23
2023-11-29T08:52:04.860Z,2.00
2023-11-29T08:54:33.141Z,2.10
2023-11-29T08:57:00.339Z,2.07
2023-11-29T08:59:29.269Z,1.97
2023-11-29T09:01:56.401Z,2.20
2023-11-29T09:04:23.648Z,1.90
2023-11-29T09:06:50.696Z,1.60
2023-11-29T09:09:18.216Z,1.90
2023-11-29T09:11:45.723Z,2.23
2023-11-29T09:14:12.889Z,2.13
2023-11-29T09:16:39.990Z,1.80
2023-11-29T09:19:07.087Z,2.17
2023-11-29T09:21:36.305Z,2.03
2023-11-29T09:24:05.854Z,1.90
2023-11-29T09:26:33.674Z,1.90
2023-11-29T09:29:00.781Z,2.00
2023-11-29T09:31:28.684Z,2.07
2023-11-29T09:33:58.354Z,2.20
2023-11-29T09:36:25.452Z,2.40
2023-11-29T09:38:52.960Z,1.93
2023-11-29T09:41:20.162Z,1.80
2023-11-29T09:43:47.215Z,1.90
2023-11-29T09:46:14.378Z,1.67
2023-11-29T09:48:42.609Z,2.00
2023-11-29T09:51:09.733Z,1.70
2023-11-29T09:53:38.403Z,2.17
2023-11-29T09:56:05.927Z,2.20
2023-11-29T09:58:32.994Z,2.00
2023-11-29T10:01:00.107Z,2.40
2023-11-29T10:03:28.329Z,2.00
2023-11-29T10:05:55.663Z,2.40
2023-11-29T10:08:23.557Z,1.93
2023-11-29T10:10:51.570Z,1.80
2023-11-29T10:13:18.831Z,2.53
2023-11-29T10:15:49.315Z,1.70
2023-11-29T10:18:17.450Z,2.20
2023-11-29T10:20:56.231Z,2.07
2023-11-29T10:23:32.764Z,2.10
2023-11-29T10:26:00.306Z,1.73
2023-11-29T10:28:27.428Z,1.90
2023-11-29T10:30:54.504Z,1.70
2023-11-29T10:33:21.754Z,1.70
2023-11-29T10:35:49.118Z,2.10
2023-11-29T10:38:16.833Z,1.90
2023-11-29T10:40:44.499Z,1.80
2023-11-29T10:43:14.016Z,2.10
2023-11-29T10:45:42.085Z,1.97
2023-11-29T10:48:09.749Z,2.10
2023-11-29T10:50:37.321Z,2.00
2023-11-29T10:53:05.293Z,1.70
2023-11-29T10:55:38.151Z,1.77
2023-11-29T10:58:25.665Z,1.90
2023-11-29T11:00:52.736Z,1.90
2023-11-29T11:03:52.812Z,1.80
2023-11-29T11:06:27.643Z,2.20
2023-11-29T11:08:55.344Z,1.97
2023-11-29T11:11:40.765Z,1.80
2023-11-29T11:14:10.445Z,1.90
2023-11-29T11:16:38.005Z,2.23
2023-11-29T11:19:05.129Z,1.93
2023-11-29T11:21:32.225Z,1.63
2023-11-29T11:24:01.513Z,1.90
2023-11-29T11:26:30.594Z,1.90
2023-11-29T11:29:00.607Z,1.73
2023-11-29T11:31:27.676Z,1.87
2023-11-29T11:33:54.865Z,1.70
2023-11-29T11:36:22.302Z,1.87
2023-11-29T11:38:49.496Z,1.70
2023-11-29T11:41:16.612Z,1.80
2023-11-29T11:43:44.012Z,1.60
2023-11-29T11:46:11.385Z,1.70
2023-11-29T11:48:38.777Z,1.57
2023-11-29T11:51:07.487Z,1.43
2023-11-29T11:53:44.056Z,1.50
2023-11-29T11:56:19.132Z,1.60
2023-11-29T11:58:46.644Z,1.67
2023-11-29T12:01:13.885Z,1.50
2023-11-29T12:03:41.122Z,1.50
2023-11-29T12:06:09.641Z,1.43
2023-11-29T12:08:37.185Z,1.43
2023-11-29T12:11:05.168Z,1.43
2023-11-29T12:13:34.067Z,1.20
2023-11-29T12:16:03.734Z,1.33
2023-11-29T12:18:30.909Z,1.50
2023-11-29T12:20:58.764Z,1.60
2023-11-29T12:23:31.608Z,1.40
2023-11-29T12:25:58.838Z,1.30
2023-11-29T12:28:26.607Z,1.27
2023-11-29T12:31:00.565Z,1.10
2023-11-29T12:33:27.833Z,1.07
2023-11-29T12:35:55.017Z,1.10
2023-11-29T12:38:22.114Z,1.50
2023-11-29T12:40:49.355Z,1.20
2023-11-29T12:43:16.515Z,1.20
2023-11-29T12:45:43.621Z,1.20
2023-11-29T12:48:10.887Z,1.10
2023-11-29T12:50:38.083Z,0.93
2023-11-29T12:53:06.366Z,0.80
2023-11-29T12:55:33.958Z,0.90
2023-11-29T12:58:01.030Z,1.07
2023-11-29T13:00:28.118Z,0.90
2023-11-29T13:02:55.320Z,0.90
2023-11-29T13:05:22.435Z,1.23
2023-11-29T13:07:49.527Z,1.00
2023-11-29T13:10:16.970Z,1.27
2023-11-29T13:12:44.057Z,1.30
2023-11-29T13:15:11.343Z,1.20
2023-11-29T13:17:38.522Z,1.10
2023-11-29T13:20:06.890Z,1.27
2023-11-29T13:22:34.152Z,1.40
2023-11-29T13:25:01.287Z,1.30
2023-11-29T13:27:28.398Z,1.00
2023-11-29T13:29:55.838Z,0.80
2023-11-29T13:32:23.041Z,0.93
2023-11-29T13:34:50.229Z,0.93
2023-11-29T13:37:17.322Z,1.00
2023-11-29T13:39:44.493Z,0.83
2023-11-29T13:42:11.717Z,0.90
2023-11-29T13:44:38.886Z,0.83
2023-11-29T13:47:06.024Z,0.80
2023-11-29T13:49:33.147Z,0.80
2023-11-29T13:52:07.989Z,0.80
2023-11-29T13:54:43.108Z,0.80
2023-11-29T13:57:10.320Z,0.57
2023-11-29T13:59:37.693Z,0.60
2023-11-29T14:02:09.078Z,0.50
2023-11-29T14:04:41.315Z,0.67
2023-11-29T14:07:09.527Z,0.57
2023-11-29T14:09:36.997Z,0.60
2023-11-29T14:12:04.287Z,0.80
2023-11-29T14:14:31.565Z,0.60
2023-11-29T14:16:58.696Z,0.33
2023-11-29T14:19:25.768Z,0.40
2023-11-29T14:21:52.975Z,0.40
2023-11-29T14:24:20.138Z,0.40
2023-11-29T14:26:47.621Z,0.53
2023-11-29T14:29:14.780Z,0.70
2023-11-29T14:31:41.863Z,0.60
2023-11-29T14:34:08.939Z,0.47
2023-11-29T14:36:36.065Z,0.40
2023-11-29T14:39:04.142Z,0.50
2023-11-29T14:41:31.306Z,0.27
2023-11-29T14:43:59.008Z,0.40
2023-11-29T14:46:26.194Z,0.30
2023-11-29T14:48:53.562Z,0.47
2023-11-29T14:51:20.883Z,0.40
2023-11-29T14:53:48.033Z,0.57
2023-11-29T14:56:16.238Z,0.50
2023-11-29T14:58:45.982Z,0.40
2023-11-29T15:01:13.056Z,0.60
2023-11-29T15:03:40.243Z,0.57
2023-11-29T15:06:07.853Z,0.60
2023-11-29T15:08:35.031Z,0.50
2023-11-29T15:11:02.096Z,0.50
2023-11-29T15:13:29.194Z,0.40
2023-11-29T15:15:56.243Z,0.50
2023-11-29T15:18:23.509Z,0.50
2023-11-29T15:20:50.666Z,0.70
2023-11-29T15:23:17.830Z,0.50
2023-11-29T15:25:44.905Z,0.70
2023-11-29T15:28:12.016Z,0.80
2023-11-29T15:30:39.781Z,0.80
2023-11-29T15:33:07.148Z,1.00
2023-11-29T15:35:35.173Z,0.90
2023-11-29T15:38:02.412Z,1.10
2023-11-29T15:40:29.502Z,0.80
2023-11-29T15:42:56.586Z,1.00
2023-11-29T15:45:24.669Z,0.87
2023-11-29T15:50:18.884Z,0.70
2023-11-29T15:52:45.958Z,0.80
2023-11-29T15:55:13.104Z,0.70
2023-11-29T15:57:40.209Z,0.80
2023-11-29T16:00:07.689Z,0.70
2023-11-29T16:02:34.908Z,0.80
2023-11-29T16:05:02.176Z,0.70
2023-11-29T16:07:29.264Z,0.90
2023-11-29T16:09:57.711Z,0.80
2023-11-29T16:12:24.838Z,0.90
2023-11-29T16:14:51.982Z,1.00
2023-11-29T16:17:19.026Z,0.80
2023-11-29T16:19:46.357Z,1.03
2023-11-29T16:22:16.434Z,1.00
2023-11-29T16:24:43.598Z,0.90
2023-11-29T16:27:10.776Z,0.90
2023-11-29T16:29:38.901Z,1.00
2023-11-29T16:32:06.227Z,1.20
2023-11-29T16:34:33.473Z,1.00
2023-11-29T16:37:00.588Z,1.10
2023-11-29T16:39:27.660Z,0.90
2023-11-29T16:41:54.830Z,1.10
2023-11-29T16:44:22.041Z,1.00
2023-11-29T16:46:49.182Z,0.80
2023-11-29T16:49:16.339Z,0.93
2023-11-29T16:51:43.515Z,1.17
2023-11-29T16:54:10.662Z,1.10
2023-11-29T16:56:42.520Z,1.00
2023-11-29T16:59:09.616Z,0.90
2023-11-29T17:01:36.724Z,0.90
2023-11-29T17:04:03.894Z,1.00
2023-11-29T17:06:31.001Z,0.90
2023-11-29T17:08:58.130Z,1.00
2023-11-29T17:11:25.288Z,0.93
2023-11-29T17:13:54.041Z,1.17
2023-11-29T17:16:21.747Z,1.20
2023-11-29T17:18:48.889Z,1.10
2023-11-29T17:21:16.437Z,1.13
2023-11-29T17:23:43.554Z,1.23
2023-11-29T17:26:10.639Z,1.50
2023-11-29T17:28:37.706Z,1.40
2023-11-29T17:31:04.868Z,1.00
2023-11-29T17:33:32.057Z,1.20
2023-11-29T17:35:59.194Z,1.23
2023-11-29T17:38:26.322Z,1.20
2023-11-29T17:40:53.425Z,1.13
2023-11-29T17:43:20.512Z,1.50
2023-11-29T17:45:51.732Z,1.30
2023-11-29T17:48:19.689Z,1.47
2023-11-29T17:50:46.798Z,1.37
2023-11-29T17:53:13.919Z,1.50
2023-11-29T17:55:41.020Z,1.30
2023-11-29T17:58:09.031Z,1.53
2023-11-29T18:00:36.189Z,1.60
2023-11-29T18:03:03.416Z,1.33
2023-11-29T18:05:30.602Z,1.40
2023-11-29T18:07:58.065Z,1.23
2023-11-29T18:10:25.197Z,1.43
2023-11-29T18:12:52.286Z,1.23
2023-11-29T18:15:19.481Z,1.07
2023-11-29T18:17:46.706Z,1.50
2023-11-29T18:20:13.817Z,1.30
2023-11-29T18:22:42.221Z,1.20
2023-11-29T18:25:09.599Z,1.10
2023-11-29T18:27:36.949Z,1.20
2023-11-29T18:30:04.245Z,1.60
2023-11-29T18:32:31.454Z,1.10
2023-11-29T18:34:58.555Z,1.00
2023-11-29T18:37:25.620Z,1.17
2023-11-29T18:39:52.724Z,1.20
2023-11-29T18:42:20.799Z,1.10
2023-11-29T18:44:47.959Z,1.40
2023-11-29T18:47:15.101Z,1.77
2023-11-29T18:49:43.492Z,1.30
2023-11-29T18:52:10.671Z,1.30
2023-11-29T18:54:37.775Z,1.50
2023-11-29T18:57:05.014Z,1.20
2023-11-29T18:59:32.290Z,1.20
2023-11-29T19:01:59.530Z,1.30
2023-11-29T19:04:26.730Z,1.60
2023-11-29T19:06:53.906Z,1.53
2023-11-29T19:09:21.246Z,1.17
2023-11-29T19:11:48.432Z,1.40
2023-11-29T19:14:15.545Z,1.33
2023-11-29T19:16:42.705Z,1.20
2023-11-29T19:19:11.376Z,1.03
2023-11-29T19:21:38.459Z,1.20
2023-11-29T19:24:05.726Z,1.27
2023-11-29T19:26:35.758Z,1.13
2023-11-29T19:29:04.474Z,1.20
2023-11-29T19:31:31.754Z,1.47
2023-11-29T19:33:59.039Z,1.50
2023-11-29T19:36:26.120Z,1.57
2023-11-29T19:38:53.357Z,1.40
2023-11-29T19:41:21.959Z,1.60
2023-11-29T19:43:49.259Z,1.63
2023-11-29T19:46:17.207Z,1.70
2023-11-29T19:48:44.448Z,1.80
2023-11-29T19:51:11.587Z,1.60
2023-11-29T19:53:38.762Z,1.80
2023-11-29T19:56:06.076Z,1.50
2023-11-29T19:58:33.281Z,1.67
2023-11-29T20:01:01.062Z,1.77
2023-11-29T20:03:28.673Z,1.90
2023-11-29T20:05:55.946Z,1.80
2023-11-29T20:08:23.124Z,1.90
2023-11-29T20:10:57.272Z,1.90
2023-11-29T20:13:24.685Z,2.07
2023-11-29T20:15:52.179Z,2.40
2023-11-29T20:18:19.425Z,2.00
2023-11-29T20:20:58.631Z,2.10
2023-11-29T20:23:30.926Z,1.90
2023-11-29T20:25:58.142Z,1.93
2023-11-29T20:28:25.354Z,2.00
2023-11-29T20:30:53.376Z,2.10
2023-11-29T20:33:20.991Z,2.20
2023-11-29T20:35:48.384Z,1.90
2023-11-29T20:38:15.593Z,2.10
2023-11-29T20:40:47.457Z,2.20
2023-11-29T20:43:16.148Z,2.20
2023-11-29T20:45:43.237Z,2.10
2023-11-29T20:48:10.459Z,2.20
2023-11-29T20:50:38.758Z,2.20
2023-11-29T20:53:14.390Z,2.00
2023-11-29T20:55:47.123Z,2.23
2023-11-29T20:58:15.166Z,1.97
2023-11-29T21:00:43.003Z,1.90
2023-11-29T21:03:10.357Z,1.60
2023-11-29T21:05:37.492Z,1.67
2023-11-29T21:08:04.865Z,2.03
2023-11-29T21:10:32.141Z,2.13
2023-11-29T21:12:59.260Z,2.00
2023-11-29T21:15:26.529Z,2.53
2023-11-29T21:17:54.417Z,2.40
2023-11-29T21:20:21.584Z,1.80
2023-11-29T21:22:48.727Z,2.00
2023-11-29T21:25:17.097Z,1.87
2023-11-29T21:27:44.217Z,2.20
2023-11-29T21:30:11.545Z,2.13
2023-11-29T21:32:38.658Z,1.90
2023-11-29T21:35:06.001Z,2.00
2023-11-29T21:37:33.085Z,2.07
2023-11-29T21:40:00.297Z,1.80
2023-11-29T21:42:27.416Z,1.83
2023-11-29T21:44:55.106Z,1.93
2023-11-29T21:47:22.399Z,1.90
2023-11-29T21:49:49.536Z,2.00
2023-11-29T21:52:16.658Z,1.90
2023-11-29T21:54:43.730Z,2.10
2023-11-29T21:57:10.878Z,2.00
2023-11-29T21:59:38.044Z,2.00
2023-11-29T22:02:05.264Z,2.20
2023-11-29T22:04:32.428Z,1.87
2023-11-29T22:06:59.488Z,2.40
2023-11-29T22:09:26.573Z,2.20
2023-11-29T22:11:53.752Z,2.10
2023-11-29T22:14:20.891Z,2.17
2023-11-29T22:16:47.949Z,2.43
2023-11-29T22:19:15.062Z,2.20
2023-11-29T22:21:42.164Z,2.50
2023-11-29T22:24:09.242Z,2.63
2023-11-29T22:26:48.156Z,2.50
2023-11-29T22:29:24.884Z,2.30
2023-11-29T22:31:53.267Z,2.50
2023-11-29T22:34:20.403Z,2.33
2023-11-29T22:36:49.127Z,2.60
2023-11-29T22:39:16.372Z,2.30
2023-11-29T22:41:43.500Z,2.33
2023-11-29T22:44:11.503Z,3.00
2023-11-29T22:46:40.365Z,2.70
2023-11-29T22:49:08.024Z,2.40
2023-11-29T22:51:35.168Z,2.80
2023-11-29T22:54:05.714Z,2.50
2023-11-29T22:56:38.005Z,2.53
2023-11-29T22:59:05.586Z,2.60
2023-11-29T23:01:33.140Z,3.00
2023-11-29T23:04:00.971Z,2.90
2023-11-29T23:06:28.212Z,2.87
2023-11-29T23:08:56.752Z,2.80
2023-11-29T23:11:23.927Z,2.70
2023-11-29T23:13:52.363Z,3.20
2023-11-29T23:16:19.736Z,3.03
2023-11-29T23:18:46.855Z,3.07
2023-11-29T23:21:14.046Z,2.97
2023-11-29T23:23:41.428Z,2.87
2023-11-29T23:26:08.600Z,3.00
2023-11-29T23:28:35.656Z,2.97
2023-11-29T23:31:03.137Z,2.83
2023-11-29T23:33:30.459Z,3.30
2023-11-29T23:35:58.214Z,3.03
2023-11-29T23:38:25.396Z,3.00
2023-11-29T23:40:52.487Z,2.87
2023-11-29T23:43:19.953Z,3.00
2023-11-29T23:45:47.059Z,2.80
2023-11-29T23:48:14.226Z,2.97
2023-11-29T23:50:41.365Z,2.80
2023-11-29T23:53:08.405Z,2.97
2023-11-29T23:55:35.485Z,2.77
2023-11-29T23:58:02.585Z,2.50
